Mauston, WI (53948)

3:12 AM CST on January 17, 2017 (GMT -0600)
| | Change Station
Active Advisory: Winter Weather Advisory

Elev -9999 ft 0.00 °N, 0.00 °E | Updated 1 minute ago

Overcast
Overcast
°F
Feels Like °F
N
Wind Variable Wind from North
Gusts mph

Today
High -- | Low -- °F
--% Chance of Precip.
Yesterday
High -- | Low -- °F
Precip. -- in
Pressure 29.89 in
Visibility 4.0 miles
Clouds Overcast 300 ft
Dew Point Not available.
Humidity Not available.
Rainfall --
Snow Depth Not available.
7:29 AM 4:51 PM
Waning Gibbous, 74% visible
METAR KVOK 170858Z AUTO 35003KT 4SM R27/4500FT BR OVC003 00/00 A2985 RMK AO2 SLP121 T00040001 56014
Pressure 29.89 in
Visibility 4.0 miles
Clouds Overcast 300 ft
Dew Point Not available.
Humidity Not available.
Rainfall --
Snow Depth Not available.
7:29 AM 4:51 PM
Waning Gibbous, 74% visible
METAR KVOK 170858Z AUTO 35003KT 4SM R27/4500FT BR OVC003 00/00 A2985 RMK AO2 SLP121 T00040001 56014

Get Your Daily Forecast Email!

Thanks for signing up!

Be on the lookout for a verification email in your inbox.

You'll start receiving the daily forecast at 8 AM.

×

10-Day Weather Forecast

Almanac

Astronomy

Jan. 17, 2017 Rise Set
Actual Time
Civil Twilight
Nautical Twilight
Astronomical Twilight
Moon
Length of Visible Light
Length of Day
Tomorrow will be .
, % of the Moon is Illuminated

Today's Extremes

State Highs State Lows

Community

WunderPhotos

Upload Photos

1,962,540 photos uploaded!

WunderBlog® & News

Nearby

Air Quality

  Air Quality AQ Index Pollutant
Not available.

Snow Depth

Station Depth Elevation

Earthquake Activity

City Distance Mag. Time & Date
Minimum magnitude displayed is 2.5.

Coastal Water Temperatures

Place Temperature

Stations

Nearby Weather Stations

Station Location Temp. Windchill Dew Point Humidity Wind Precip. Elev Updated Type
                   

Watches & Warnings

Winter Weather Advisory
Issued: 11:47 PM CST Jan. 16, 2017 – National Weather Service

... Winter Weather Advisory remains in effect until noon CST
Tuesday...

* periods of light wintry precipitation will continue... gradually
winding down through sunrise.

* Roads are very icy region-wide. Even though air temperatures
may warm above freezing tonight... untreated surfaces will
remain very icy due to cold ground.

* Additional ice accumulation of a glaze to a few hundredths of
an inch is expected overnight. Any snow or sleet accumulation
will be less than 1 inch.

* Travel will remain very hazardous... including during the
Tuesday morning commute.

Precautionary/preparedness actions...

A Winter Weather Advisory means that periods of snow... sleet or
freezing rain will cause travel difficulties. Be prepared for
slippery roads and limited visibilities... and use caution while
driving. The latest Road conditions for the state you are calling
from can be obtained by calling 5 1 1.